createdAt,value
2023-05-10T00:00:59.532Z,2.6
2023-05-10T00:03:26.236Z,2
2023-05-10T00:05:52.908Z,2.6
2023-05-10T00:08:18.129Z,2.8
2023-05-10T00:10:44.813Z,2.9
2023-05-10T00:13:11.498Z,2.1
2023-05-10T00:15:38.187Z,1.8
2023-05-10T00:18:04.871Z,2.4
2023-05-10T00:20:31.551Z,2.8
2023-05-10T00:22:56.806Z,2.4
2023-05-10T00:25:22.021Z,2.1
2023-05-10T00:27:48.719Z,2.5
2023-05-10T00:30:15.385Z,2.5
2023-05-10T00:32:42.105Z,2.4
2023-05-10T00:35:08.780Z,1.6
2023-05-10T00:37:35.452Z,1
2023-05-10T00:40:02.139Z,1.4
2023-05-10T00:42:28.816Z,1.1
2023-05-10T00:44:55.504Z,1.1
2023-05-10T00:47:22.180Z,1
2023-05-10T00:49:48.881Z,1.1
2023-05-10T00:52:14.114Z,1.1
2023-05-10T00:54:39.362Z,1.2
2023-05-10T00:57:06.032Z,1
2023-05-10T01:01:59.565Z,1
2023-05-10T01:04:26.091Z,1
2023-05-10T01:06:52.807Z,1
2023-05-10T01:09:19.469Z,0.8
2023-05-10T01:11:46.157Z,1
2023-05-10T01:14:12.843Z,0.7
2023-05-10T01:16:39.522Z,0.8
2023-05-10T01:19:06.211Z,0.7
2023-05-10T01:21:32.887Z,0.7
2023-05-10T01:23:59.572Z,1.1
2023-05-10T01:26:26.254Z,0.7
2023-05-10T01:28:51.476Z,0.6
2023-05-10T01:33:44.838Z,0.8
2023-05-10T01:38:36.782Z,0.7
2023-05-10T01:41:02.026Z,0.6
2023-05-10T01:43:27.237Z,0.7
2023-05-10T01:45:53.935Z,0.7
2023-05-10T01:50:47.295Z,0.6
2023-05-10T01:53:13.991Z,1
2023-05-10T01:55:40.693Z,1.1
2023-05-10T01:58:07.371Z,0.7
2023-05-10T02:00:34.025Z,0.7
2023-05-10T02:03:00.782Z,0.8
2023-05-10T02:05:27.402Z,1
2023-05-10T02:07:54.082Z,0.8
2023-05-10T02:12:47.464Z,0.8
2023-05-10T02:15:14.145Z,0.9
2023-05-10T02:17:39.416Z,1.1
2023-05-10T02:20:06.093Z,1
2023-05-10T02:22:31.289Z,0.8
2023-05-10T02:24:57.987Z,1
2023-05-10T02:27:24.667Z,1
2023-05-10T02:29:51.349Z,1.3
2023-05-10T02:32:18.048Z,1
2023-05-10T02:34:44.724Z,1.3
2023-05-10T02:37:11.410Z,1.1
2023-05-10T02:39:38.102Z,1
2023-05-10T02:42:03.359Z,1.1
2023-05-10T02:44:28.564Z,1
2023-05-10T02:46:55.245Z,1
2023-05-10T02:49:21.942Z,0.8
2023-05-10T02:51:48.623Z,1
2023-05-10T02:54:15.300Z,0.8
2023-05-10T02:56:42.006Z,1
2023-05-10T02:59:08.663Z,1.4
2023-05-10T03:01:35.357Z,1
2023-05-10T03:04:02.065Z,1.1
2023-05-10T03:06:28.728Z,1.1
2023-05-10T03:08:53.986Z,1.2
2023-05-10T03:11:19.200Z,1.2
2023-05-10T03:13:45.886Z,1
2023-05-10T03:16:12.565Z,1.1
2023-05-10T03:18:39.252Z,1.1
2023-05-10T03:21:05.943Z,1.3
2023-05-10T03:23:32.636Z,1.3
2023-05-10T03:25:59.302Z,1.5
2023-05-10T03:28:25.992Z,1.3
2023-05-10T03:30:52.666Z,1.6
2023-05-10T03:33:19.364Z,1.7
2023-05-10T03:35:46.051Z,1.2
2023-05-10T03:38:12.734Z,1.3
2023-05-10T03:40:39.413Z,1.4
2023-05-10T03:43:06.114Z,1.4
2023-05-10T03:45:31.315Z,1.2
2023-05-10T03:47:58.071Z,1.7
2023-05-10T03:50:24.705Z,1.6
2023-05-10T03:52:51.386Z,1.5
2023-05-10T03:55:18.070Z,1.5
2023-05-10T03:57:44.752Z,1.5
2023-05-10T04:00:11.406Z,1.3
2023-05-10T04:02:38.117Z,1.4
2023-05-10T04:05:04.803Z,1.9
2023-05-10T04:07:31.488Z,1.5
2023-05-10T04:09:58.170Z,1.4
2023-05-10T04:12:24.857Z,1.1
2023-05-10T04:14:51.533Z,1.5
2023-05-10T04:17:18.227Z,1.5
2023-05-10T04:19:43.442Z,1.3
2023-05-10T04:22:10.176Z,1
2023-05-10T04:24:36.813Z,1.3
2023-05-10T04:27:03.536Z,1.2
2023-05-10T04:29:30.192Z,1
2023-05-10T04:31:56.857Z,1.3
2023-05-10T04:34:23.563Z,1.2
2023-05-10T04:36:50.243Z,1.1
2023-05-10T04:39:16.925Z,1.2
2023-05-10T04:41:43.713Z,1.5
2023-05-10T04:44:10.357Z,1.7
2023-05-10T04:46:36.973Z,1.9
2023-05-10T04:49:03.654Z,2
2023-05-10T04:51:30.349Z,2.8
2023-05-10T04:53:55.555Z,2.4
2023-05-10T04:56:22.235Z,2.6
2023-05-10T04:58:48.927Z,2.3
2023-05-10T05:01:15.653Z,2
2023-05-10T05:03:42.318Z,2.2
2023-05-10T05:06:08.973Z,1.7
2023-05-10T05:08:35.675Z,1.6
2023-05-10T05:11:02.366Z,1.9
2023-05-10T05:13:29.057Z,1.4
2023-05-10T05:15:55.765Z,1.7
2023-05-10T05:18:22.408Z,1.5
2023-05-10T05:20:49.093Z,1.8
2023-05-10T05:25:42.488Z,1.8
2023-05-10T05:28:09.152Z,1.5
2023-05-10T05:30:34.372Z,1.2
2023-05-10T05:33:01.051Z,1.1
2023-05-10T05:35:27.737Z,1.1
2023-05-10T05:37:54.407Z,1.4
2023-05-10T05:40:21.191Z,1.6
2023-05-10T05:42:47.916Z,1.2
2023-05-10T05:47:41.218Z,1.1
2023-05-10T05:50:07.852Z,1.5
2023-05-10T05:52:34.596Z,1.9
2023-05-10T05:55:01.216Z,1
2023-05-10T05:57:27.978Z,1.2
2023-05-10T05:59:54.610Z,1.1
2023-05-10T06:02:21.362Z,1.4
2023-05-10T06:04:48.090Z,1.3
2023-05-10T06:07:14.639Z,1.4
2023-05-10T06:09:41.393Z,1.1
2023-05-10T06:12:08.034Z,1
2023-05-10T06:14:34.697Z,1.4
2023-05-10T06:16:59.972Z,1
2023-05-10T06:19:26.727Z,1.2
2023-05-10T06:21:53.278Z,1.7
2023-05-10T06:24:19.461Z,1.5
2023-05-10T06:26:46.130Z,1.2
2023-05-10T06:31:39.579Z,1.2
2023-05-10T06:34:06.308Z,1.2
2023-05-10T06:36:32.919Z,1.3
2023-05-10T06:38:59.561Z,1.2
2023-05-10T06:41:26.266Z,1.4
2023-05-10T06:43:52.933Z,1.4
2023-05-10T06:46:19.591Z,1.2
2023-05-10T06:48:44.924Z,1.5
2023-05-10T06:51:11.523Z,1.4
2023-05-10T06:53:38.396Z,1.3
2023-05-10T06:56:04.869Z,1.5
2023-05-10T06:58:31.660Z,1.6
2023-05-10T07:00:58.244Z,1.3
2023-05-10T07:03:25.041Z,1.7
2023-05-10T07:05:51.639Z,1.2
2023-05-10T07:08:18.406Z,1.7
2023-05-10T07:10:45.133Z,1.4
2023-05-10T07:13:11.792Z,1.3
2023-05-10T07:15:38.498Z,2
2023-05-10T07:18:05.035Z,1.2
2023-05-10T07:20:30.376Z,1.5
2023-05-10T07:22:56.940Z,1.3
2023-05-10T07:25:23.732Z,1.2
2023-05-10T07:27:50.445Z,1.3
2023-05-10T07:30:17.166Z,1
2023-05-10T07:32:43.679Z,1
2023-05-10T07:35:10.389Z,1.3
2023-05-10T07:37:37.177Z,1.5
2023-05-10T07:40:03.770Z,1.2
2023-05-10T07:42:30.426Z,1.7
2023-05-10T07:44:57.175Z,1.5
2023-05-10T07:47:23.863Z,1.2
2023-05-10T07:49:50.473Z,1.4
2023-05-10T07:52:15.706Z,1.2
2023-05-10T07:54:42.484Z,1.1
2023-05-10T07:57:09.076Z,1.3
2023-05-10T07:59:35.846Z,1.3
2023-05-10T08:02:02.438Z,1.3
2023-05-10T08:04:29.102Z,1.2
2023-05-10T08:06:55.928Z,1.2
2023-05-10T08:09:22.473Z,1.3
2023-05-10T08:11:49.193Z,1.4
2023-05-10T08:14:15.850Z,1.2
2023-05-10T08:16:42.552Z,1.4
2023-05-10T08:19:09.373Z,1.3
2023-05-10T08:21:35.898Z,1.3
2023-05-10T08:24:01.124Z,1.2
2023-05-10T08:26:27.893Z,1
2023-05-10T08:28:54.613Z,1.2
2023-05-10T08:31:21.240Z,2
2023-05-10T08:33:48.031Z,1.3
2023-05-10T08:36:14.730Z,1.1
2023-05-10T08:38:41.310Z,0.9
2023-05-10T08:41:08.082Z,1.2
2023-05-10T08:43:34.727Z,1.1
2023-05-10T08:46:01.429Z,1.2
2023-05-10T08:48:27.995Z,0.8
2023-05-10T08:50:54.676Z,0.8
2023-05-10T08:53:21.418Z,1
2023-05-10T08:58:14.759Z,1.3
2023-05-10T09:00:40.038Z,1.2
2023-05-10T09:03:06.610Z,1.2
2023-05-10T09:05:31.837Z,1.2
2023-05-10T09:07:58.545Z,1.2
2023-05-10T09:10:25.210Z,1
2023-05-10T09:12:52.010Z,1.2
2023-05-10T09:15:18.585Z,2.1
2023-05-10T09:17:45.269Z,1.1
2023-05-10T09:20:11.954Z,1.1
2023-05-10T09:22:38.693Z,1
2023-05-10T09:25:05.319Z,1
2023-05-10T09:27:31.997Z,1
2023-05-10T09:29:58.720Z,1.1
2023-05-10T09:32:25.376Z,1.4
2023-05-10T09:34:52.086Z,1.3
2023-05-10T09:37:17.273Z,1
2023-05-10T09:39:44.016Z,1.2
2023-05-10T09:42:10.640Z,0.8
2023-05-10T09:44:37.329Z,0.8
2023-05-10T09:47:04.018Z,1.1
2023-05-10T09:49:30.686Z,1.1
2023-05-10T09:51:57.371Z,1
2023-05-10T09:54:24.064Z,1
2023-05-10T09:56:50.747Z,1
2023-05-10T09:59:17.432Z,0.7
2023-05-10T10:01:44.118Z,0.8
2023-05-10T10:04:10.838Z,1
2023-05-10T10:06:37.485Z,0.8
2023-05-10T10:09:04.165Z,0.7
2023-05-10T10:11:29.416Z,0.9
2023-05-10T10:13:56.092Z,0.9
2023-05-10T10:16:22.758Z,0.8
2023-05-10T10:18:49.449Z,0.6
2023-05-10T10:21:16.213Z,0.8
2023-05-10T10:23:42.990Z,1
2023-05-10T10:26:09.501Z,0.8
2023-05-10T10:28:36.245Z,0.8
2023-05-10T10:31:02.946Z,0.6
2023-05-10T10:33:29.543Z,0.8
2023-05-10T10:35:56.226Z,0.5
2023-05-10T10:38:22.930Z,0.8
2023-05-10T10:40:49.632Z,0.8
2023-05-10T10:43:14.848Z,0.9
2023-05-10T10:45:41.617Z,0.8
2023-05-10T10:48:08.192Z,0.6
2023-05-10T10:50:34.876Z,0.8
2023-05-10T10:53:01.769Z,0.5
2023-05-10T10:55:28.379Z,1.1
2023-05-10T10:57:55.052Z,0.6
2023-05-10T11:00:21.619Z,0.9
2023-05-10T11:02:48.306Z,1
2023-05-10T11:05:15.091Z,0.5
2023-05-10T11:07:41.672Z,1.2
2023-05-10T11:10:08.420Z,0.5
2023-05-10T11:12:35.043Z,2.5
2023-05-10T11:15:00.305Z,0.6
2023-05-10T11:17:26.943Z,0.8
2023-05-10T11:22:20.379Z,0.9
2023-05-10T11:24:46.993Z,0.8
2023-05-10T11:27:13.725Z,0.8
2023-05-10T11:29:40.522Z,0.6
2023-05-10T11:32:07.181Z,0.6
2023-05-10T11:34:33.753Z,0.5
2023-05-10T11:37:00.419Z,0.5
2023-05-10T11:39:27.103Z,0.5
2023-05-10T11:41:53.787Z,0.7
2023-05-10T11:44:20.488Z,0.5
2023-05-10T11:46:47.156Z,0.6
2023-05-10T11:49:12.391Z,0.4
2023-05-10T11:51:39.078Z,0.7
2023-05-10T11:54:05.755Z,0.5
2023-05-10T11:56:32.427Z,0.5
2023-05-10T11:58:59.115Z,0.5
2023-05-10T12:01:25.803Z,0.8
2023-05-10T12:03:52.490Z,0.7
2023-05-10T12:06:19.193Z,0.7
2023-05-10T12:11:12.548Z,0.6
2023-05-10T12:13:39.279Z,0.7
2023-05-10T12:16:05.904Z,0.8
2023-05-10T12:18:32.585Z,0.9
2023-05-10T12:20:57.837Z,0.6
2023-05-10T12:23:24.508Z,0.7
2023-05-10T12:25:51.241Z,0.7
2023-05-10T12:28:17.862Z,0.5
2023-05-10T12:30:44.570Z,0.6
2023-05-10T12:33:11.282Z,0.6
2023-05-10T12:35:37.926Z,0.6
2023-05-10T12:38:04.597Z,0.5
2023-05-10T12:40:31.455Z,0.8
2023-05-10T12:42:57.984Z,0.8
2023-05-10T12:45:24.653Z,0.7
2023-05-10T12:47:51.450Z,0.7
2023-05-10T12:50:18.032Z,0.6
2023-05-10T12:52:43.364Z,0.6
2023-05-10T12:55:09.956Z,0.7
2023-05-10T12:57:36.640Z,0.7
2023-05-10T13:00:03.365Z,1
2023-05-10T13:02:30.011Z,0.6
2023-05-10T13:04:56.750Z,0.8
2023-05-10T13:07:23.434Z,1
2023-05-10T13:09:50.151Z,0.7
2023-05-10T13:12:16.741Z,1.1
2023-05-10T13:14:43.446Z,0.8
2023-05-10T13:17:10.102Z,0.8
2023-05-10T13:19:36.780Z,1.2
2023-05-10T13:22:03.524Z,0.9
2023-05-10T13:24:28.699Z,0.8
2023-05-10T13:26:55.380Z,1.2
2023-05-10T13:29:22.114Z,1.3
2023-05-10T13:31:48.771Z,1.6
2023-05-10T13:34:15.478Z,1.1
2023-05-10T13:36:42.125Z,1.2
2023-05-10T13:39:08.848Z,1
2023-05-10T13:41:35.494Z,1.5
2023-05-10T13:44:02.181Z,1.2
2023-05-10T13:46:28.885Z,1.2
2023-05-10T13:48:55.538Z,1
2023-05-10T13:51:22.276Z,1.3
2023-05-10T13:53:48.932Z,1
2023-05-10T13:56:14.184Z,0.8
2023-05-10T13:58:40.812Z,0.8
2023-05-10T14:01:07.609Z,0.8
2023-05-10T14:03:34.187Z,1.1
2023-05-10T14:06:00.864Z,1.2
2023-05-10T14:08:27.636Z,1.3
2023-05-10T14:10:54.309Z,1.4
2023-05-10T14:13:21.050Z,1.1
2023-05-10T14:15:47.799Z,0.8
2023-05-10T14:18:14.376Z,1
2023-05-10T14:20:40.991Z,1
2023-05-10T14:23:07.680Z,0.9
2023-05-10T14:25:34.507Z,0.9
2023-05-10T14:27:59.555Z,1.3
2023-05-10T14:30:26.265Z,1.1
2023-05-10T14:32:52.926Z,1
2023-05-10T14:35:19.612Z,1.1
2023-05-10T14:37:46.301Z,1.2
2023-05-10T14:40:13.038Z,1.1
2023-05-10T14:42:39.737Z,1
2023-05-10T14:45:06.348Z,1.1
2023-05-10T14:47:33.039Z,1.1
2023-05-10T14:49:59.819Z,0.9
2023-05-10T14:52:26.397Z,1
2023-05-10T14:54:53.104Z,1
2023-05-10T14:57:19.884Z,1.1
2023-05-10T14:59:44.998Z,1.1
2023-05-10T15:02:11.841Z,2
2023-05-10T15:04:38.370Z,1
2023-05-10T15:07:05.184Z,1.2
2023-05-10T15:09:31.746Z,1.1
2023-05-10T15:11:58.405Z,1.8
2023-05-10T15:14:25.165Z,1
2023-05-10T15:16:51.786Z,1.1
2023-05-10T15:19:18.497Z,1.2
2023-05-10T15:21:45.280Z,0.9
2023-05-10T15:24:11.925Z,0.8
2023-05-10T15:26:38.531Z,0.8
2023-05-10T15:29:05.414Z,1.5
2023-05-10T15:31:30.496Z,1
2023-05-10T15:33:57.108Z,1
2023-05-10T15:36:23.896Z,1
2023-05-10T15:38:50.478Z,0.8
2023-05-10T15:41:17.247Z,1.3
2023-05-10T15:43:44.044Z,1
2023-05-10T15:46:10.657Z,1
2023-05-10T15:48:37.294Z,1.6
2023-05-10T15:51:03.927Z,1.3
2023-05-10T15:53:30.630Z,1.1
2023-05-10T15:55:57.301Z,1.4
2023-05-10T15:58:23.962Z,1.5
2023-05-10T16:00:50.635Z,1
2023-05-10T16:03:15.877Z,1.2
2023-05-10T16:05:42.602Z,1
2023-05-10T16:08:09.268Z,1.2
2023-05-10T16:10:35.974Z,1.1
2023-05-10T16:13:02.611Z,1.3
2023-05-10T16:15:29.336Z,1.5
2023-05-10T16:17:56.028Z,0.8
2023-05-10T16:20:22.650Z,0.8
2023-05-10T16:22:49.334Z,1.3
2023-05-10T16:25:16.096Z,1.4
2023-05-10T16:27:42.740Z,1.2
2023-05-10T16:30:09.379Z,1.1
2023-05-10T16:32:36.091Z,1
2023-05-10T16:35:01.291Z,1.1
2023-05-10T16:37:28.088Z,1.1
2023-05-10T16:39:54.670Z,1.3
2023-05-10T16:42:21.358Z,0.8
2023-05-10T16:44:48.034Z,1
2023-05-10T16:47:14.714Z,1
2023-05-10T16:49:41.450Z,0.7
2023-05-10T16:52:08.190Z,1.4
2023-05-10T16:54:34.855Z,0.8
2023-05-10T16:57:01.536Z,0.8
2023-05-10T16:59:28.149Z,1.3
2023-05-10T17:01:54.834Z,0.8
2023-05-10T17:04:21.590Z,1.2
2023-05-10T17:06:48.200Z,1.3
2023-05-10T17:09:13.413Z,1.2
2023-05-10T17:11:40.104Z,0.8
2023-05-10T17:14:06.823Z,1.1
2023-05-10T17:16:33.494Z,1.1
2023-05-10T17:19:00.158Z,1.2
2023-05-10T17:21:26.862Z,1.7
2023-05-10T17:23:53.616Z,1.2
2023-05-10T17:26:20.205Z,1.2
2023-05-10T17:28:46.941Z,1
2023-05-10T17:31:13.655Z,1.5
2023-05-10T17:33:40.250Z,1.1
2023-05-10T17:36:06.946Z,1.5
2023-05-10T17:38:33.641Z,1.5
2023-05-10T17:40:58.878Z,1.4
2023-05-10T17:43:25.582Z,1.5
2023-05-10T17:45:52.341Z,1.4
2023-05-10T17:48:19.074Z,1.2
2023-05-10T17:50:45.675Z,1.5
2023-05-10T17:53:12.317Z,1.7
2023-05-10T17:55:38.991Z,1.5
2023-05-10T17:58:05.692Z,1.2
2023-05-10T18:00:32.358Z,1.5
2023-05-10T18:02:59.098Z,1.5
2023-05-10T18:05:25.723Z,1.4
2023-05-10T18:07:52.409Z,1.4
2023-05-10T18:10:19.107Z,1.3
2023-05-10T18:12:45.450Z,1.5
2023-05-10T18:15:10.603Z,1.2
2023-05-10T18:17:37.266Z,1.6
2023-05-10T18:20:03.984Z,1.5
2023-05-10T18:22:30.827Z,1.6
2023-05-10T18:24:57.516Z,1.7
2023-05-10T18:27:24.117Z,1.5
2023-05-10T18:29:50.837Z,1.8
2023-05-10T18:32:17.396Z,1.6
2023-05-10T18:34:44.124Z,1.5
2023-05-10T18:37:10.900Z,1.5
2023-05-10T18:39:37.598Z,1.7
2023-05-10T18:42:04.149Z,1.4
2023-05-10T18:44:30.930Z,2.2
2023-05-10T18:46:57.652Z,1.7
2023-05-10T18:49:24.233Z,1.6
2023-05-10T18:51:50.894Z,1.6
2023-05-10T18:54:17.614Z,1.5
2023-05-10T18:56:44.237Z,1.3
2023-05-10T18:59:09.459Z,1.6
2023-05-10T19:01:36.136Z,1.8
2023-05-10T19:04:02.890Z,1.5
2023-05-10T19:06:29.602Z,1.6
2023-05-10T19:08:56.262Z,2
2023-05-10T19:11:22.871Z,1.4
2023-05-10T19:13:49.573Z,2
2023-05-10T19:16:16.296Z,1.9
2023-05-10T19:18:43.348Z,1.7
2023-05-10T19:21:09.755Z,1.8
2023-05-10T19:23:36.726Z,2.1
2023-05-10T19:26:03.054Z,2.2
2023-05-10T19:28:29.714Z,2.8
2023-05-10T19:30:56.428Z,2.1
2023-05-10T19:33:21.572Z,2
2023-05-10T19:35:48.255Z,1.7
2023-05-10T19:38:15.014Z,1.6
2023-05-10T19:40:41.680Z,1.5
2023-05-10T19:43:08.365Z,1.6
2023-05-10T19:45:34.997Z,1.7
2023-05-10T19:48:01.703Z,1.7
2023-05-10T19:50:28.428Z,1.9
2023-05-10T19:52:55.106Z,1.8
2023-05-10T19:55:21.734Z,1.9
2023-05-10T19:57:48.566Z,1.7
2023-05-10T20:00:15.205Z,1.5
2023-05-10T20:02:41.882Z,1.4
2023-05-10T20:05:07.033Z,1.2
2023-05-10T20:07:33.731Z,1.3
2023-05-10T20:10:00.408Z,1.4
2023-05-10T20:12:27.080Z,1
2023-05-10T20:14:53.870Z,1.3
2023-05-10T20:17:20.578Z,1.2
2023-05-10T20:19:47.155Z,1.4
2023-05-10T20:22:13.903Z,1.5
2023-05-10T20:24:40.493Z,2.1
2023-05-10T20:27:07.162Z,1.3
2023-05-10T20:29:33.908Z,1.8
2023-05-10T20:32:00.535Z,1.5
2023-05-10T20:34:27.358Z,1.6
2023-05-10T20:36:53.994Z,1.4
2023-05-10T20:39:19.146Z,1.4
2023-05-10T20:41:45.810Z,1.3
2023-05-10T20:44:12.550Z,1.4
2023-05-10T20:46:39.186Z,1.3
2023-05-10T20:49:05.858Z,1.4
2023-05-10T20:51:32.564Z,1.5
2023-05-10T20:53:59.271Z,1.3
2023-05-10T20:56:25.925Z,1.4
2023-05-10T20:58:52.603Z,1.4
2023-05-10T21:01:19.320Z,1.2
2023-05-10T21:03:45.972Z,1.2
2023-05-10T21:06:12.668Z,1.9
2023-05-10T21:08:39.344Z,1.4
2023-05-10T21:11:04.572Z,1.1
2023-05-10T21:13:31.424Z,1.3
2023-05-10T21:15:57.971Z,1.6
2023-05-10T21:18:24.675Z,1.3
2023-05-10T21:20:51.369Z,1.3
2023-05-10T21:23:18.020Z,1.7
2023-05-10T21:25:44.716Z,1.8
2023-05-10T21:28:11.373Z,1.6
2023-05-10T21:30:38.061Z,2
2023-05-10T21:33:04.835Z,1.9
2023-05-10T21:35:31.473Z,1.7
2023-05-10T21:37:58.113Z,1.6
2023-05-10T21:40:24.816Z,2.1
2023-05-10T21:42:51.506Z,1.9
2023-05-10T21:45:18.154Z,1.7
2023-05-10T21:47:43.368Z,1.8
2023-05-10T21:50:10.066Z,1.6
2023-05-10T21:52:36.762Z,1.7
2023-05-10T21:55:03.430Z,1.8
2023-05-10T21:57:30.112Z,1.4
2023-05-10T21:59:56.836Z,1.6
2023-05-10T22:02:23.564Z,1.5
2023-05-10T22:04:50.158Z,1.2
2023-05-10T22:07:16.850Z,1.2
2023-05-10T22:09:43.534Z,1
2023-05-10T22:12:10.247Z,1.4
2023-05-10T22:14:36.906Z,1.3
2023-05-10T22:17:03.623Z,1.2
2023-05-10T22:19:28.800Z,1.4
2023-05-10T22:21:55.614Z,1.4
2023-05-10T22:24:22.172Z,1.1
2023-05-10T22:26:48.875Z,1.3
2023-05-10T22:29:15.539Z,1.6
2023-05-10T22:31:42.254Z,1
2023-05-10T22:34:08.917Z,1.1
2023-05-10T22:36:35.596Z,1.3
2023-05-10T22:39:02.290Z,1.2
2023-05-10T22:41:29.008Z,1.2
2023-05-10T22:43:55.652Z,1.2
2023-05-10T22:46:22.333Z,0.8
2023-05-10T22:48:49.023Z,1.2
2023-05-10T22:51:14.237Z,1.3
2023-05-10T22:53:40.917Z,1.2
2023-05-10T22:56:07.596Z,1
2023-05-10T22:58:34.290Z,1
2023-05-10T23:01:00.967Z,1.1
2023-05-10T23:03:27.668Z,1
2023-05-10T23:05:54.343Z,1
2023-05-10T23:08:21.019Z,1
2023-05-10T23:10:47.704Z,1.1
2023-05-10T23:13:14.397Z,1
2023-05-10T23:15:41.078Z,1.1
2023-05-10T23:18:07.785Z,1.1
2023-05-10T23:20:34.525Z,1.1
2023-05-10T23:22:59.749Z,1
2023-05-10T23:25:26.357Z,1.2
2023-05-10T23:27:53.041Z,1.2
2023-05-10T23:30:19.711Z,1.1
2023-05-10T23:32:46.397Z,1.1
2023-05-10T23:35:13.115Z,1.2
2023-05-10T23:37:39.810Z,1.2
2023-05-10T23:40:06.472Z,1.2
2023-05-10T23:42:33.142Z,1.3
2023-05-10T23:44:59.838Z,0.8
2023-05-10T23:47:26.516Z,1.1
2023-05-10T23:49:53.211Z,1.2
2023-05-10T23:52:19.881Z,1.1
2023-05-10T23:54:46.580Z,0.9
2023-05-10T23:57:13.259Z,1.2
2023-05-10T23:59:39.933Z,1.2
